Ana Sayfa
METAR-TAF:

METAR-TAF

Havaalanları :

Pittsburgh / West Mifflin, Pensilvanya, Amerika Birleşik Devletleri

Enlem: 40-21-17N, Boylam: 079-55-18W, yükseklik: 382 m

Güncel hava durumu gözlemi

Rapor saat 14:53 UTC de 1 saat ve 12 dakika önce yapıldı.
Sıcaklık 8°C
Nem 39%
Basınç 1017 hPa
Görüş mesafesi: 16.1 km

METAR: KAGC 021453Z 10SM 08/M05 A3004 RMK AO2 SLP182 T00831050 50002 $

Saat: 12:05 (16:05 UTC)

Tahmin

Rapor saat 11:27 UTC de 4 saat ve 38 dakika önce yapıldı.
Ayın 02'si saat 12 UTC'den ayın 03'si saat 12 UTC'ye kadar geçerli Tahmin
Rüzgar kuzeybatıdan 7 kt
Görüş mesafesi: 10 km
Açık gökyüzü
Ayın 02'si saat 1500 UTC'den
Rüzgar kuzey/kuzeybatıdan 12 kt ve 22 kt'a kadar ani rüzgarlar
Görüş mesafesi: 10 km
4000 ft yükseklikte parçalı bulutlu
Ayın 03'si saat 0100 UTC'den
Rüzgar kuzeybatıdan 6 kt
Görüş mesafesi: 10 km
Açık gökyüzü

TAF: KAGC 021127Z 0212/0312 32007KT P6SM SKC FM021500 34012G22KT P6SM SCT040 FM030100 32006KT P6SM SKC

4.000'den fazla havaalanı için hava durumu gözlemleri ve tahminleri (METAR ve TAF raporları).

Kullanılabilir istasyonlar harita üzerinde sarı ve kırmızı noktalarla gösterilir.

İstasyonun adını görmek için fareyi noktanın üzerinde gezdirin.

Sonrasında hava gözlem ve tahminlerini görmek için tıklayın.

Haritayı değiştirmek için: yaklaştırmak için siyah artı işaretli yeşil düğmeye ve uzaklaştırmak için de eksi işaretli düğmeye hızla tıklayın; bitişik haritalar için yeşil okları kullanın.


METAR-TAF: